This is the latest recevied weather packets stored in our database for station/object N9MXT-13. If no packets are shown the sender has not sent any weather packets the latest 10 day(s).
| Time | Temp. | Humidity | Pressure | Rain* | Wind** | Luminosity | Snow |
|---|---|---|---|---|---|---|---|
| 1777621501 | 3.89° C | 90% | 1015.1 hPa | 0.25 mm | - | - | - |
| 1777609201 | 3.89° C | 84% | 1015 hPa | 0 mm | - | - | - |
| 1777604700 | 5° C | 78% | 1015.4 hPa | 0 mm | - | - | - |
| 1777603501 | 5° C | 77% | 1015.4 hPa | 0 mm | - | - | - |
| 1777601401 | 4.44° C | 77% | 1015 hPa | 0 mm | - | - | - |
| 1777600500 | 4.44° C | 77% | 1015 hPa | 0 mm | - | - | - |
| 1777599901 | 4.44° C | 78% | 1014.9 hPa | 0 mm | - | - | - |
| 1777596301 | 5° C | 81% | 1014.6 hPa | 0 mm | - | - | - |
| 1777591800 | 6.11° C | 80% | 1014.5 hPa | 0 mm | - | - | - |
| 1777590299 | 6.67° C | 80% | 1014.5 hPa | 0.25 mm | - | - | - |
| 1777588201 | 7.78° C | 79% | 1014.5 hPa | 0.25 mm | - | - | - |
| 1777587001 | 8.33° C | 78% | 1014.6 hPa | 0 mm | - | - | - |
| 1777584301 | 8.89° C | 73% | 1014.5 hPa | 0 mm | - | - | - |
| 1777583400 | 8.89° C | 74% | 1014.6 hPa | 0 mm | - | - | - |
| 1777582201 | 8.89° C | 72% | 1014.7 hPa | 0 mm | - | - | - |
| 1777580701 | 9.44° C | 71% | 1014.7 hPa | 0 mm | - | - | - |
| 1777578301 | 10.56° C | 71% | 1015 hPa | 0 mm | - | - | - |
| 1777576500 | 12.22° C | 56% | 1015 hPa | 0 mm | - | - | - |
| 1777576200 | 12.22° C | 57% | 1015.1 hPa | 0 mm | - | - | - |
| 1777574100 | 11.67° C | 58% | 1015.3 hPa | 0 mm | - | - | - |
| 1777572900 | 11.67° C | 57% | 1015.5 hPa | 0 mm | - | - | - |
| 1777570503 | 12.22° C | 54% | 1015.8 hPa | 0 mm | - | - | - |
| 1777570200 | 12.22° C | 55% | 1015.8 hPa | 0 mm | - | - | - |
| 1777566899 | 11.11° C | 55% | 1016.3 hPa | 0 mm | - | - | - |
| 1777563600 | 11.11° C | 53% | 1016.5 hPa | 0 mm | - | - | - |
* Rain latest hour (hover to see other rain measurements)
** Current wind speed in m/s (hover to see current wind gust speed)